Time;durP1;ratioP1;P1;durP2;ratioP2;P2;SDS_P1;SDS_P2;PMS_P1;PMS_P2;Temp;Humidity;BMP_temperature;BMP_pressure;BME280_temperature;BME280_humidity;BME280_pressure;Samples;Min_cycle;Max_cycle;Signal;HPM_P1;HPM_P2
2024/01/01 00:00:35;;;;;;;3.90;2.30;;;;;;;-144.57;100.00;62443.72;5052974;28;20069;-61
2024/01/01 00:03:01;;;;;;;2.88;2.50;;;;;;;-144.57;100.00;62443.72;5035527;28;20082;-61
2024/01/01 00:05:27;;;;;;;3.65;2.58;;;;;;;-144.57;100.00;62443.72;5034668;28;20102;-62
2024/01/01 00:07:52;;;;;;;2.00;1.70;;;;;;;-144.57;100.00;62443.72;5050354;28;20032;-62
2024/01/01 00:10:19;;;;;;;4.82;2.83;;;;;;;-144.57;100.00;62443.72;5051998;28;20055;-61
2024/01/01 00:12:45;;;;;;;9.25;2.42;;;;;;;-144.57;100.00;62443.72;5051543;28;20052;-62
2024/01/01 00:15:11;;;;;;;5.15;3.15;;;;;;;-144.57;100.00;62443.72;5051940;28;20128;-61
2024/01/01 00:17:37;;;;;;;4.05;2.42;;;;;;;-144.57;100.00;62443.72;5050644;28;20128;-63
2024/01/01 00:20:05;;;;;;;5.50;2.95;;;;;;;-144.57;100.00;62443.72;5050394;28;20049;-62
2024/01/01 00:22:31;;;;;;;4.35;2.65;;;;;;;-144.57;100.00;62443.72;5050552;28;20049;-62
2024/01/01 00:24:58;;;;;;;4.45;2.90;;;;;;;-144.57;100.00;62443.72;5051673;28;20453;-62
2024/01/01 00:27:24;;;;;;;2.95;2.47;;;;;;;-144.57;100.00;62443.72;5050159;28;20507;-62
2024/01/01 00:29:50;;;;;;;4.93;2.72;;;;;;;-144.57;100.00;62443.72;5050162;28;20427;-62
2024/01/01 00:32:16;;;;;;;3.13;2.28;;;;;;;-144.57;100.00;62443.72;5051522;28;20041;-61
2024/01/01 00:34:44;;;;;;;4.57;3.05;;;;;;;-144.57;100.00;62443.72;5052004;28;20060;-62
2024/01/01 00:37:10;;;;;;;4.85;2.45;;;;;;;-144.57;100.00;62443.72;5051463;28;20068;-61
2024/01/01 00:39:36;;;;;;;6.13;2.78;;;;;;;-144.57;100.00;62443.72;5022557;28;20459;-62
2024/01/01 00:42:02;;;;;;;4.05;2.38;;;;;;;-144.57;100.00;62443.72;5012145;28;20559;-61
2024/01/01 00:44:28;;;;;;;3.50;2.92;;;;;;;-144.57;100.00;62443.72;5010329;28;20124;-62
2024/01/01 00:46:54;;;;;;;2.90;2.50;;;;;;;-144.57;100.00;62443.72;5012228;28;20120;-63
2024/01/01 00:49:20;;;;;;;3.97;2.38;;;;;;;-144.57;100.00;62443.72;5011569;28;20124;-61
2024/01/01 00:51:46;;;;;;;5.53;2.85;;;;;;;-144.57;100.00;62443.72;5010758;28;20033;-63
2024/01/01 00:54:12;;;;;;;3.78;2.58;;;;;;;-144.57;100.00;62443.72;4993707;28;20073;-62
2024/01/01 00:56:37;;;;;;;4.32;2.40;;;;;;;-144.57;100.00;62443.72;5010246;28;20041;-65
2024/01/01 00:59:04;;;;;;;5.35;2.65;;;;;;;-144.57;100.00;62443.72;5011276;28;20526;-63
2024/01/01 01:01:29;;;;;;;4.85;3.17;;;;;;;-144.57;100.00;62443.72;5011743;28;20483;-62
2024/01/01 01:03:55;;;;;;;4.07;2.38;;;;;;;-144.57;100.00;62443.72;5010330;28;20046;-62
2024/01/01 01:06:21;;;;;;;4.88;2.90;;;;;;;-144.57;100.00;62443.72;5011835;28;20053;-63
2024/01/01 01:08:47;;;;;;;4.13;2.22;;;;;;;-144.57;100.00;62443.72;5011418;28;20521;-62
2024/01/01 01:11:13;;;;;;;5.40;3.03;;;;;;;-144.57;100.00;62443.72;5010391;28;20518;-62
2024/01/01 01:13:38;;;;;;;4.93;3.35;;;;;;;-144.57;100.00;62443.72;5011221;28;20046;-61
2024/01/01 01:16:04;;;;;;;3.10;2.17;;;;;;;-144.57;100.00;62443.72;5011723;28;20286;-61
2024/01/01 01:18:30;;;;;;;6.03;3.13;;;;;;;-144.57;100.00;62443.72;5012242;28;20495;-61
2024/01/01 01:20:56;;;;;;;4.10;2.95;;;;;;;-144.57;100.00;62443.72;5015369;28;20042;-62
2024/01/01 01:23:22;;;;;;;2.67;2.08;;;;;;;-144.57;100.00;62443.72;5014889;28;20053;-62
2024/01/01 01:25:47;;;;;;;4.30;1.98;;;;;;;-144.57;100.00;62443.72;5013828;28;20042;-62
2024/01/01 01:28:23;;;;;;;3.28;1.77;;;;;;;-144.57;100.00;62443.72;5013732;28;20034;-62
2024/01/01 01:30:49;;;;;;;4.32;3.03;;;;;;;-144.57;100.00;62443.72;5014968;28;20125;-61
2024/01/01 01:33:16;;;;;;;3.70;2.40;;;;;;;-144.57;100.00;62443.72;5014748;28;20092;-62
2024/01/01 01:35:42;;;;;;;2.58;2.20;;;;;;;-144.57;100.00;62443.72;5013642;28;20135;-62
2024/01/01 01:38:08;;;;;;;2.30;2.10;;;;;;;-144.57;100.00;62443.72;5013369;28;20052;-61
2024/01/01 01:40:34;;;;;;;4.68;3.35;;;;;;;-144.57;100.00;62443.72;5025121;28;20057;-61
2024/01/01 01:43:00;;;;;;;2.50;2.03;;;;;;;-144.57;100.00;62443.72;5054136;28;20422;-61
2024/01/01 01:45:26;;;;;;;3.63;2.60;;;;;;;-144.57;100.00;62443.72;5053103;28;20120;-62
2024/01/01 01:47:52;;;;;;;2.83;2.17;;;;;;;-144.57;100.00;62443.72;5036332;28;20040;-61
2024/01/01 01:50:19;;;;;;;2.50;2.10;;;;;;;-144.57;100.00;62443.72;5053031;28;20053;-63
2024/01/01 01:52:45;;;;;;;2.30;1.88;;;;;;;-144.57;100.00;62443.72;5052770;28;20453;-62
2024/01/01 01:55:11;;;;;;;3.13;1.80;;;;;;;-144.57;100.00;62443.72;5052972;28;20044;-61
2024/01/01 01:57:38;;;;;;;3.55;2.05;;;;;;;-144.57;100.00;62443.72;5054218;28;20051;-62
2024/01/01 02:00:05;;;;;;;2.00;1.77;;;;;;;-144.57;100.00;62443.72;5052699;28;20053;-62
2024/01/01 02:02:38;;;;;;;2.83;2.20;;;;;;;-144.57;100.00;62443.72;5052768;28;20503;-62
2024/01/01 02:05:04;;;;;;;3.65;2.20;;;;;;;-144.57;100.00;62443.72;5052666;28;20107;-61
2024/01/01 02:07:31;;;;;;;2.90;2.15;;;;;;;-144.57;100.00;62443.72;5086091;28;20044;-61
2024/01/01 02:09:57;;;;;;;3.40;2.55;;;;;;;-144.57;100.00;62443.72;5053958;28;20047;-62
2024/01/01 02:12:23;;;;;;;2.35;2.00;;;;;;;-144.57;100.00;62443.72;5053900;28;20056;-62
2024/01/01 02:14:49;;;;;;;2.13;1.48;;;;;;;-144.57;100.00;62443.72;5053722;28;20053;-62
2024/01/01 02:17:16;;;;;;;2.95;2.05;;;;;;;-144.57;100.00;62443.72;5053399;28;20098;-61
2024/01/01 02:19:42;;;;;;;6.25;2.95;;;;;;;-144.57;100.00;62443.72;5053678;28;20044;-63
2024/01/01 02:22:08;;;;;;;2.10;1.90;;;;;;;-144.57;100.00;62443.72;5053316;28;20056;-63
2024/01/01 02:24:34;;;;;;;1.60;1.50;;;;;;;-144.57;100.00;62443.72;5053563;28;20060;-61
2024/01/01 02:27:00;;;;;;;1.70;1.60;;;;;;;-144.57;100.00;62443.72;5052120;28;20044;-62
2024/01/01 02:29:26;;;;;;;2.58;1.85;;;;;;;-144.57;100.00;62443.72;5051499;28;20041;-62
2024/01/01 02:31:52;;;;;;;2.20;1.50;;;;;;;-144.57;100.00;62443.72;5051447;28;20067;-63
2024/01/01 02:34:18;;;;;;;2.85;1.95;;;;;;;-144.57;100.00;62443.72;5052178;28;20053;-61
2024/01/01 02:36:44;;;;;;;2.78;2.03;;;;;;;-144.57;100.00;62443.72;5052192;28;20086;-62
2024/01/01 02:39:10;;;;;;;1.42;1.27;;;;;;;-144.57;100.00;62443.72;5051818;28;20524;-62
2024/01/01 02:41:36;;;;;;;2.28;1.77;;;;;;;-144.57;100.00;62443.72;5068636;28;20056;-62
2024/01/01 02:44:03;;;;;;;3.88;1.75;;;;;;;-144.57;100.00;62443.72;5035175;28;20506;-62
2024/01/01 02:46:29;;;;;;;2.28;1.73;;;;;;;-144.57;100.00;62443.72;5053057;28;20122;-62
2024/01/01 02:48:55;;;;;;;4.55;2.55;;;;;;;-144.57;100.00;62443.72;5051648;28;20037;-61
2024/01/01 02:51:21;;;;;;;2.95;2.03;;;;;;;-144.57;100.00;62443.72;5051708;28;20501;-61
2024/01/01 02:53:47;;;;;;;2.50;1.85;;;;;;;-144.57;100.00;62443.72;5051837;28;20037;-62
2024/01/01 02:56:20;;;;;;;2.00;1.85;;;;;;;-144.57;100.00;62443.72;5053311;28;20048;-62
2024/01/01 02:58:47;;;;;;;2.97;1.73;;;;;;;-144.57;100.00;62443.72;5052761;28;20116;-61
2024/01/01 03:01:13;;;;;;;2.45;1.60;;;;;;;-144.57;100.00;62443.72;5035115;28;20048;-61
2024/01/01 03:03:39;;;;;;;1.92;1.83;;;;;;;-144.57;100.00;62443.72;5051569;28;20033;-62
2024/01/01 03:06:07;;;;;;;3.45;2.13;;;;;;;-144.57;100.00;62443.72;5053030;28;20133;-63
2024/01/01 03:08:36;;;;;;;2.67;1.90;;;;;;;-144.57;100.00;62443.72;5035199;28;20055;-60
2024/01/01 03:11:04;;;;;;;3.17;2.15;;;;;;;-144.57;100.00;62443.72;5053048;28;20486;-62
2024/01/01 03:13:30;;;;;;;3.00;1.70;;;;;;;-144.57;100.00;62443.72;5051275;28;20045;-60
2024/01/01 03:15:56;;;;;;;5.20;2.20;;;;;;;-144.57;100.00;62443.72;5052947;28;20059;-61
2024/01/01 03:18:22;;;;;;;3.72;2.28;;;;;;;-144.57;100.00;62443.72;5034541;28;20095;-62
2024/01/01 03:20:47;;;;;;;1.95;1.75;;;;;;;-144.57;100.00;62443.72;5052790;28;20098;-61
2024/01/01 03:23:13;;;;;;;3.25;1.90;;;;;;;-144.57;100.00;62443.72;5051328;28;20069;-61
2024/01/01 03:25:39;;;;;;;3.30;2.08;;;;;;;-144.57;100.00;62443.72;5051404;28;20064;-61
2024/01/01 03:28:06;;;;;;;3.22;1.90;;;;;;;-144.57;100.00;62443.72;5051204;28;20095;-63
2024/01/01 03:30:32;;;;;;;2.10;1.80;;;;;;;-144.57;100.00;62443.72;5052744;28;20098;-61
2024/01/01 03:32:59;;;;;;;2.65;1.95;;;;;;;-144.57;100.00;62443.72;5052277;28;20041;-62
2024/01/01 03:35:25;;;;;;;2.75;2.15;;;;;;;-144.57;100.00;62443.72;5051192;28;20045;-62
2024/01/01 03:37:51;;;;;;;1.65;1.48;;;;;;;-144.57;100.00;62443.72;5052490;28;20045;-60
2024/01/01 03:40:17;;;;;;;2.63;1.92;;;;;;;-144.57;100.00;62443.72;5052263;28;20064;-60
2024/01/01 03:42:42;;;;;;;6.03;2.20;;;;;;;-144.57;100.00;62443.72;5052096;28;20509;-62
2024/01/01 03:45:09;;;;;;;2.55;2.33;;;;;;;-144.57;100.00;62443.72;5050887;28;20052;-63
2024/01/01 03:47:35;;;;;;;3.38;2.17;;;;;;;-144.57;100.00;62443.72;5034374;28;20037;-63
2024/01/01 03:50:01;;;;;;;3.40;2.10;;;;;;;-144.57;100.00;62443.72;5051240;28;20132;-62
2024/01/01 03:52:28;;;;;;;3.78;2.60;;;;;;;-144.57;100.00;62443.72;5035476;28;20438;-62
2024/01/01 03:54:53;;;;;;;2.10;1.60;;;;;;;-144.57;100.00;62443.72;5052466;28;20170;-61
2024/01/01 03:57:20;;;;;;;4.20;2.15;;;;;;;-144.57;100.00;62443.72;5051793;28;20173;-62
2024/01/01 03:59:45;;;;;;;4.68;2.17;;;;;;;-144.57;100.00;62443.72;5050404;28;20152;-62
2024/01/01 04:02:12;;;;;;;3.47;1.80;;;;;;;-144.57;100.00;62443.72;5051967;28;20140;-62
2024/01/01 04:04:43;;;;;;;2.00;1.80;;;;;;;-144.57;100.00;62443.72;5050501;28;20111;-62
2024/01/01 04:07:09;;;;;;;1.95;1.85;;;;;;;-144.57;100.00;62443.72;5050863;28;20045;-62
2024/01/01 04:09:34;;;;;;;2.88;1.80;;;;;;;-144.57;100.00;62443.72;5052067;28;20032;-61
2024/01/01 04:12:00;;;;;;;6.07;3.15;;;;;;;-144.57;100.00;62443.72;5050515;28;20045;-63
2024/01/01 04:14:26;;;;;;;1.75;1.63;;;;;;;-144.57;100.00;62443.72;5051747;28;20045;-62
2024/01/01 04:16:52;;;;;;;3.25;2.22;;;;;;;-144.57;100.00;62443.72;5050394;28;20036;-63
2024/01/01 04:19:17;;;;;;;2.00;1.73;;;;;;;-144.57;100.00;62443.72;5051475;28;20032;-61
2024/01/01 04:21:43;;;;;;;2.85;2.10;;;;;;;-144.57;100.00;62443.72;5051789;28;20052;-62
2024/01/01 04:24:09;;;;;;;6.60;2.13;;;;;;;-144.57;100.00;62443.72;5051626;28;20040;-62
2024/01/01 04:26:37;;;;;;;4.55;2.22;;;;;;;-144.57;100.00;62443.72;5051684;28;20079;-63
2024/01/01 04:29:03;;;;;;;4.28;2.78;;;;;;;-144.57;100.00;62443.72;5052133;28;20043;-62
2024/01/01 04:31:29;;;;;;;3.83;2.15;;;;;;;-144.57;100.00;62443.72;5051826;28;20044;-62
2024/01/01 04:33:54;;;;;;;2.00;1.80;;;;;;;-144.57;100.00;62443.72;5050130;28;20045;-62
2024/01/01 04:36:21;;;;;;;4.18;2.00;;;;;;;-144.57;100.00;62443.72;5051789;28;20045;-61
2024/01/01 04:38:47;;;;;;;2.90;2.00;;;;;;;-144.57;100.00;62443.72;5050423;28;20084;-62
2024/01/01 04:41:13;;;;;;;3.72;2.25;;;;;;;-144.57;100.00;62443.72;5051309;28;20071;-62
2024/01/01 04:43:40;;;;;;;2.40;2.00;;;;;;;-144.57;100.00;62443.72;5051587;28;20048;-61
2024/01/01 04:46:09;;;;;;;3.95;2.08;;;;;;;-144.57;100.00;62443.72;5049905;28;20055;-61
2024/01/01 04:48:35;;;;;;;2.85;1.90;;;;;;;-144.57;100.00;62443.72;5049959;28;20056;-62
2024/01/01 04:51:01;;;;;;;3.47;2.10;;;;;;;-144.57;100.00;62443.72;5051694;28;20123;-62
2024/01/01 04:53:26;;;;;;;3.15;2.08;;;;;;;-144.57;100.00;62443.72;5051667;28;20045;-62
2024/01/01 04:55:52;;;;;;;3.35;2.42;;;;;;;-144.57;100.00;62443.72;5055661;28;20065;-61
2024/01/01 04:58:19;;;;;;;6.05;2.75;;;;;;;-144.57;100.00;62443.72;5055346;28;20676;-61
2024/01/01 05:00:45;;;;;;;4.45;2.20;;;;;;;-144.57;100.00;62443.72;5055485;28;20076;-62
2024/01/01 05:03:11;;;;;;;2.40;1.80;;;;;;;-144.57;100.00;62443.72;5053862;28;20080;-61
2024/01/01 05:05:37;;;;;;;4.63;2.10;;;;;;;-144.57;100.00;62443.72;5037452;28;20045;-62
2024/01/01 05:08:03;;;;;;;7.30;2.78;;;;;;;-144.57;100.00;62443.72;5055098;28;20070;-60
2024/01/01 05:10:29;;;;;;;2.63;1.90;;;;;;;-144.57;100.00;62443.72;5054162;28;20068;-61
2024/01/01 05:12:54;;;;;;;3.95;2.65;;;;;;;-144.57;100.00;62443.72;5053763;28;20072;-61
2024/01/01 05:15:20;;;;;;;4.50;2.45;;;;;;;-144.57;100.00;62443.72;5054812;28;20041;-62
2024/01/01 05:17:46;;;;;;;2.08;1.88;;;;;;;-144.57;100.00;62443.72;5054900;28;20045;-62
2024/01/01 05:20:12;;;;;;;4.28;2.22;;;;;;;-144.57;100.00;62443.72;5054964;28;20398;-62
2024/01/01 05:22:37;;;;;;;3.17;2.28;;;;;;;-144.57;100.00;62443.72;5055014;28;20330;-62
2024/01/01 05:25:04;;;;;;;3.25;2.38;;;;;;;-144.57;100.00;62443.72;5053345;28;20513;-63
2024/01/01 05:27:30;;;;;;;3.83;2.22;;;;;;;-144.57;100.00;62443.72;5053508;28;20056;-61
2024/01/01 05:29:56;;;;;;;3.72;2.35;;;;;;;-144.57;100.00;62443.72;5054973;28;20398;-62
2024/01/01 05:32:22;;;;;;;4.28;2.35;;;;;;;-144.57;100.00;62443.72;5054359;28;20171;-62
2024/01/01 05:34:48;;;;;;;3.88;2.60;;;;;;;-144.57;100.00;62443.72;5054552;28;20135;-62
2024/01/01 05:37:14;;;;;;;4.35;2.17;;;;;;;-144.57;100.00;62443.72;5054387;28;20045;-62
2024/01/01 05:39:39;;;;;;;3.05;2.50;;;;;;;-144.57;100.00;62443.72;5054608;28;20056;-61
2024/01/01 05:42:05;;;;;;;4.88;2.67;;;;;;;-144.57;100.00;62443.72;5054118;28;20069;-61
2024/01/01 05:44:31;;;;;;;3.53;2.15;;;;;;;-144.57;100.00;62443.72;5036387;28;20079;-63
2024/01/01 05:46:57;;;;;;;3.10;2.53;;;;;;;-144.57;100.00;62443.72;5054463;28;20041;-64
2024/01/01 05:49:25;;;;;;;2.80;1.98;;;;;;;-144.57;100.00;62443.72;5054358;28;20502;-63
2024/01/01 05:51:51;;;;;;;5.03;2.70;;;;;;;-144.57;100.00;62443.72;5052855;28;20124;-63
2024/01/01 05:54:17;;;;;;;5.38;3.03;;;;;;;-144.57;100.00;62443.72;5052698;28;20206;-61
2024/01/01 05:56:44;;;;;;;2.97;2.03;;;;;;;-144.57;100.00;62443.72;5054342;28;20053;-63
2024/01/01 05:59:09;;;;;;;6.72;2.13;;;;;;;-144.57;100.00;62443.72;5053922;28;20037;-62
2024/01/01 06:01:35;;;;;;;3.85;2.20;;;;;;;-144.57;100.00;62443.72;5054244;28;20127;-61
2024/01/01 06:04:01;;;;;;;4.57;2.72;;;;;;;-144.57;100.00;62443.72;5053966;28;20502;-62
2024/01/01 06:06:27;;;;;;;3.33;2.60;;;;;;;-144.57;100.00;62443.72;5054375;28;20048;-65
2024/01/01 06:08:53;;;;;;;3.75;2.33;;;;;;;-144.57;100.00;62443.72;5053217;28;20523;-62
2024/01/01 06:11:18;;;;;;;4.00;2.42;;;;;;;-144.57;100.00;62443.72;5053201;28;20407;-60
2024/01/01 06:13:45;;;;;;;5.80;2.80;;;;;;;-144.57;100.00;62443.72;5054179;28;20975;-62
2024/01/01 06:16:11;;;;;;;6.55;2.72;;;;;;;-144.57;100.00;62443.72;5054311;28;20037;-61
2024/01/01 06:18:37;;;;;;;5.63;3.03;;;;;;;-144.57;100.00;62443.72;5054252;28;20502;-62
2024/01/01 06:21:03;;;;;;;4.18;2.53;;;;;;;-144.57;100.00;62443.72;5054565;28;20095;-61
2024/01/01 06:23:28;;;;;;;4.53;2.83;;;;;;;-144.57;100.00;62443.72;5054023;28;20049;-62
2024/01/01 06:25:55;;;;;;;5.97;3.00;;;;;;;-144.57;100.00;62443.72;5054296;28;20513;-62
2024/01/01 06:28:21;;;;;;;3.53;2.40;;;;;;;-144.57;100.00;62443.72;5052338;28;20045;-61
2024/01/01 06:30:47;;;;;;;3.55;2.92;;;;;;;-144.57;100.00;62443.72;5053560;28;20045;-63
2024/01/01 06:33:13;;;;;;;5.68;3.28;;;;;;;-144.57;100.00;62443.72;5053538;28;20052;-62
2024/01/01 06:35:39;;;;;;;4.47;2.55;;;;;;;-144.57;100.00;62443.72;5053952;28;20116;-63
2024/01/01 06:38:04;;;;;;;5.95;2.83;;;;;;;-144.57;100.00;62443.72;5054060;28;20044;-63
2024/01/01 06:40:30;;;;;;;4.80;2.53;;;;;;;-144.57;100.00;62443.72;5053652;28;20053;-63
2024/01/01 06:42:56;;;;;;;6.22;3.10;;;;;;;-144.57;100.00;62443.72;5053733;28;20048;-63
2024/01/01 06:45:22;;;;;;;4.45;2.90;;;;;;;-144.57;100.00;62443.72;5052472;28;20067;-62
2024/01/01 06:47:48;;;;;;;3.10;2.25;;;;;;;-144.57;100.00;62443.72;5052072;28;20131;-62
2024/01/01 06:50:14;;;;;;;7.22;3.20;;;;;;;-144.57;100.00;62443.72;5053083;28;20055;-62
2024/01/01 06:52:40;;;;;;;3.63;2.60;;;;;;;-144.57;100.00;62443.72;5053278;28;20048;-61
2024/01/01 06:55:06;;;;;;;3.45;2.85;;;;;;;-144.57;100.00;62443.72;5053124;28;20045;-62
2024/01/01 06:57:32;;;;;;;5.53;3.20;;;;;;;-144.57;100.00;62443.72;5052790;28;20404;-63
2024/01/01 06:59:58;;;;;;;3.72;2.63;;;;;;;-144.57;100.00;62443.72;5053155;28;20048;-62
2024/01/01 07:02:25;;;;;;;5.88;3.30;;;;;;;-144.57;100.00;62443.72;5053073;28;20067;-63
2024/01/01 07:04:51;;;;;;;3.17;2.08;;;;;;;-144.57;100.00;62443.72;5034954;28;20067;-62
2024/01/01 07:07:17;;;;;;;6.68;2.92;;;;;;;-144.57;100.00;62443.72;5052788;28;20037;-63
2024/01/01 07:09:43;;;;;;;3.45;2.40;;;;;;;-144.57;100.00;62443.72;5051902;28;20051;-63
2024/01/01 07:12:20;;;;;;;4.05;2.33;;;;;;;-144.57;100.00;62443.72;5052855;28;20506;-60
2024/01/01 07:14:47;;;;;;;3.90;2.70;;;;;;;-144.57;100.00;62443.72;5052722;28;20432;-63
2024/01/01 07:17:13;;;;;;;3.53;2.20;;;;;;;-144.57;100.00;62443.72;5051894;28;20045;-63
2024/01/01 07:19:39;;;;;;;5.22;3.10;;;;;;;-144.57;100.00;62443.72;5051623;28;20037;-61
2024/01/01 07:22:05;;;;;;;3.03;1.95;;;;;;;-144.57;100.00;62443.72;5052724;28;20052;-62
2024/01/01 07:24:31;;;;;;;6.22;3.28;;;;;;;-144.57;100.00;62443.72;5052763;28;20087;-62
2024/01/01 07:26:59;;;;;;;2.63;1.85;;;;;;;-144.57;100.00;62443.72;5052414;28;20052;-62
2024/01/01 07:29:27;;;;;;;6.47;3.22;;;;;;;-144.57;100.00;62443.72;5051206;28;20052;-63
2024/01/01 07:31:53;;;;;;;3.00;2.25;;;;;;;-144.57;100.00;62443.72;5052271;28;20049;-62
2024/01/01 07:34:20;;;;;;;4.65;2.58;;;;;;;-144.57;100.00;62443.72;5052417;28;20041;-62
2024/01/01 07:36:47;;;;;;;3.90;2.47;;;;;;;-144.57;100.00;62443.72;5051389;28;20235;-62
2024/01/01 07:39:13;;;;;;;3.72;2.47;;;;;;;-144.57;100.00;62443.72;5051191;28;20041;-63
2024/01/01 07:41:39;;;;;;;3.35;2.40;;;;;;;-144.57;100.00;62443.72;5052489;28;20210;-63
2024/01/01 07:44:07;;;;;;;3.08;2.03;;;;;;;-144.57;100.00;62443.72;5034576;28;20536;-61
2024/01/01 07:46:33;;;;;;;4.65;2.55;;;;;;;-144.57;100.00;62443.72;5052311;28;20048;-63
2024/01/01 07:49:02;;;;;;;5.07;2.58;;;;;;;-144.57;100.00;62443.72;5050806;28;20052;-63
2024/01/01 07:51:27;;;;;;;4.95;2.40;;;;;;;-144.57;100.00;62443.72;5052363;28;20127;-62
2024/01/01 07:53:53;;;;;;;2.97;2.55;;;;;;;-144.57;100.00;62443.72;5052178;28;20600;-63
2024/01/01 07:56:19;;;;;;;4.05;2.53;;;;;;;-144.57;100.00;62443.72;5052431;28;20192;-63
2024/01/01 07:58:45;;;;;;;2.97;2.20;;;;;;;-144.57;100.00;62443.72;5052108;28;20210;-61
2024/01/01 08:01:10;;;;;;;3.88;2.30;;;;;;;-144.57;100.00;62443.72;5050722;28;20044;-61
2024/01/01 08:03:36;;;;;;;4.47;2.85;;;;;;;-144.57;100.00;62443.72;5051769;28;20186;-62
2024/01/01 08:06:02;;;;;;;3.00;2.03;;;;;;;-144.57;100.00;62443.72;5051627;28;20601;-62
2024/01/01 08:08:28;;;;;;;4.28;2.78;;;;;;;-144.57;100.00;62443.72;5050351;28;20072;-62
2024/01/01 08:10:53;;;;;;;4.13;2.75;;;;;;;-144.57;100.00;62443.72;5051994;28;20044;-63
2024/01/01 08:13:20;;;;;;;3.97;2.60;;;;;;;-144.57;100.00;62443.72;5051711;28;20045;-62
2024/01/01 08:15:45;;;;;;;5.30;2.63;;;;;;;-144.57;100.00;62443.72;5050525;28;20047;-62
2024/01/01 08:18:11;;;;;;;2.90;2.35;;;;;;;-144.57;100.00;62443.72;5050186;28;20049;-63
2024/01/01 08:20:37;;;;;;;4.72;2.63;;;;;;;-144.57;100.00;62443.72;5050462;28;20036;-62
2024/01/01 08:23:03;;;;;;;4.07;2.42;;;;;;;-144.57;100.00;62443.72;5051679;28;20529;-62
2024/01/01 08:25:28;;;;;;;5.40;2.90;;;;;;;-144.57;100.00;62443.72;5051850;28;20121;-63
2024/01/01 08:27:54;;;;;;;5.95;2.70;;;;;;;-144.57;100.00;62443.72;5051454;28;20041;-63
2024/01/01 08:30:20;;;;;;;2.25;1.80;;;;;;;-144.57;100.00;62443.72;5051776;28;20041;-63
2024/01/01 08:32:46;;;;;;;3.75;2.35;;;;;;;-144.57;100.00;62443.72;5051396;28;20490;-62
2024/01/01 08:35:11;;;;;;;5.30;2.72;;;;;;;-144.57;100.00;62443.72;5050315;28;20044;-63
2024/01/01 08:37:37;;;;;;;4.28;2.53;;;;;;;-144.57;100.00;62443.72;5050015;28;20041;-64
2024/01/01 08:40:04;;;;;;;5.68;2.53;;;;;;;-144.57;100.00;62443.72;5050135;28;20078;-63
2024/01/01 08:42:30;;;;;;;6.57;2.78;;;;;;;-144.57;100.00;62443.72;5051205;28;20114;-64
2024/01/01 08:44:55;;;;;;;4.18;2.63;;;;;;;-144.57;100.00;62443.72;5052238;28;20510;-63
2024/01/01 08:47:21;;;;;;;4.80;2.72;;;;;;;-144.57;100.00;62443.72;5054330;28;20041;-63
2024/01/01 08:49:47;;;;;;;5.40;2.42;;;;;;;-144.57;100.00;62443.72;5054353;28;20514;-63
2024/01/01 08:52:13;;;;;;;4.07;2.42;;;;;;;-144.57;100.00;62443.72;5053211;28;20041;-63
2024/01/01 08:54:38;;;;;;;4.35;3.10;;;;;;;-144.57;100.00;62443.72;5051341;28;20465;-64
2024/01/01 08:57:04;;;;;;;4.75;2.80;;;;;;;-144.57;100.00;62443.72;5051377;28;20449;-62
2024/01/01 08:59:31;;;;;;;3.65;2.38;;;;;;;-144.57;100.00;62443.72;5051396;28;20048;-63
2024/01/01 09:01:56;;;;;;;4.88;2.58;;;;;;;-144.57;100.00;62443.72;5051469;28;20079;-64
2024/01/01 09:04:22;;;;;;;5.47;2.33;;;;;;;-144.57;100.00;62443.72;5051340;28;20044;-63
2024/01/01 09:06:48;;;;;;;4.95;2.80;;;;;;;-144.57;100.00;62443.72;5035354;28;20422;-65
2024/01/01 09:09:14;;;;;;;3.80;2.67;;;;;;;-144.57;100.00;62443.72;5051339;28;20037;-62
2024/01/01 09:11:40;;;;;;;4.10;2.20;;;;;;;-144.57;100.00;62443.72;5051052;28;20526;-64
2024/01/01 09:14:05;;;;;;;5.22;3.10;;;;;;;-144.57;100.00;62443.72;5032830;28;20049;-63
2024/01/01 09:16:31;;;;;;;3.63;2.53;;;;;;;-144.57;100.00;62443.72;5050805;28;20045;-65
2024/01/01 09:18:59;;;;;;;4.32;2.75;;;;;;;-144.57;100.00;62443.72;5049580;28;20417;-62
2024/01/01 09:21:26;;;;;;;2.72;2.30;;;;;;;-144.57;100.00;62443.72;5049776;28;20514;-63
2024/01/01 09:24:01;;;;;;;2.55;1.98;;;;;;;-144.57;100.00;62443.72;5049768;28;20054;-63
2024/01/01 09:26:28;;;;;;;5.63;2.80;;;;;;;-144.57;100.00;62443.72;5049601;28;20041;-62
2024/01/01 09:28:54;;;;;;;4.32;2.45;;;;;;;-144.57;100.00;62443.72;5049749;28;20068;-62
2024/01/01 09:31:19;;;;;;;3.10;2.42;;;;;;;-144.57;100.00;62443.72;5049453;28;20138;-63
2024/01/01 09:33:45;;;;;;;4.53;2.90;;;;;;;-144.57;100.00;62443.72;5050808;28;20053;-62
2024/01/01 09:36:13;;;;;;;5.78;3.05;;;;;;;-144.57;100.00;62443.72;5049604;28;20040;-62
2024/01/01 09:38:39;;;;;;;3.42;2.65;;;;;;;-144.57;100.00;62443.72;5050743;28;20624;-62
2024/01/01 09:41:05;;;;;;;3.08;2.55;;;;;;;-144.57;100.00;62443.72;5053690;28;20534;-63
2024/01/01 09:43:31;;;;;;;5.43;2.95;;;;;;;-144.57;100.00;62443.72;5054256;28;20079;-62
2024/01/01 09:45:57;;;;;;;5.28;2.53;;;;;;;-144.57;100.00;62443.72;5054719;28;20082;-63
2024/01/01 09:48:23;;;;;;;4.65;2.40;;;;;;;-144.57;100.00;62443.72;5054380;28;20502;-63
2024/01/01 09:50:51;;;;;;;4.05;2.33;;;;;;;-144.57;100.00;62443.72;5054508;28;20048;-63
2024/01/01 09:53:19;;;;;;;5.63;3.20;;;;;;;-144.57;100.00;62443.72;5052745;28;20059;-63
2024/01/01 09:55:53;;;;;;;5.40;2.83;;;;;;;-144.57;100.00;62443.72;5054368;28;20064;-61
2024/01/01 09:58:18;;;;;;;4.10;2.83;;;;;;;-144.57;100.00;62443.72;5053966;28;20101;-62
2024/01/01 10:00:44;;;;;;;4.35;3.10;;;;;;;-144.57;100.00;62443.72;5054254;28;20037;-63
2024/01/01 10:03:11;;;;;;;4.15;2.80;;;;;;;-144.57;100.00;62443.72;5053802;28;20502;-63
2024/01/01 10:05:38;;;;;;;5.00;2.90;;;;;;;-144.57;100.00;62443.72;5052840;28;20094;-63
2024/01/01 10:08:12;;;;;;;5.18;3.05;;;;;;;-144.57;100.00;62443.72;5054058;28;20071;-63
2024/01/01 10:10:38;;;;;;;5.65;2.90;;;;;;;-144.57;100.00;62443.72;5052714;28;20037;-63
2024/01/01 10:13:07;;;;;;;5.65;3.28;;;;;;;-144.57;100.00;62443.72;5052312;28;20395;-63
2024/01/01 10:15:33;;;;;;;5.07;2.58;;;;;;;-144.57;100.00;62443.72;5053981;28;20041;-64
2024/01/01 10:18:09;;;;;;;3.60;2.58;;;;;;;-144.57;100.00;62443.72;5053837;28;20051;-61
2024/01/01 10:20:35;;;;;;;5.85;2.85;;;;;;;-144.57;100.00;62443.72;5053891;28;20045;-63
2024/01/01 10:23:23;;;;;;;5.72;2.80;;;;;;;-144.57;100.00;62443.72;5053499;28;20041;-62
2024/01/01 10:26:04;;;;;;;6.60;3.25;;;;;;;-144.57;100.00;62443.72;5052088;28;20449;-62
2024/01/01 10:28:31;;;;;;;6.13;3.63;;;;;;;-144.57;100.00;62443.72;5052442;28;20083;-61
2024/01/01 10:30:59;;;;;;;5.80;3.10;;;;;;;-144.57;100.00;62443.72;5053699;28;20097;-63
2024/01/01 10:33:27;;;;;;;6.53;3.58;;;;;;;-144.57;100.00;62443.72;5052023;28;20127;-63
2024/01/01 10:35:53;;;;;;;6.70;3.53;;;;;;;-144.57;100.00;62443.72;5052247;28;20413;-62
2024/01/01 10:38:19;;;;;;;7.32;3.63;;;;;;;-144.57;100.00;62443.72;5053257;28;20041;-61
2024/01/01 10:40:46;;;;;;;6.53;3.85;;;;;;;-144.57;100.00;62443.72;5053238;28;20238;-62
2024/01/01 10:43:13;;;;;;;4.95;3.22;;;;;;;-144.57;100.00;62443.72;5053310;28;20107;-63
2024/01/01 10:45:39;;;;;;;8.15;3.28;;;;;;;-144.57;100.00;62443.72;5053372;28;20498;-61
2024/01/01 10:48:13;;;;;;;6.53;3.38;;;;;;;-144.57;100.00;62443.72;5052940;28;20163;-64
2024/01/01 10:51:24;;;;;;;7.22;3.72;;;;;;;-144.57;100.00;62443.72;5052389;28;20072;-64
2024/01/01 10:54:02;;;;;;;5.68;3.28;;;;;;;-144.57;100.00;62443.72;5036503;28;20056;-62
2024/01/01 10:56:36;;;;;;;6.22;3.33;;;;;;;-144.57;100.00;62443.72;5051741;28;20067;-62
2024/01/01 10:59:22;;;;;;;6.22;3.97;;;;;;;-144.57;100.00;62443.72;5051797;28;20391;-65
2024/01/01 11:01:52;;;;;;;5.63;3.80;;;;;;;-144.57;100.00;62443.72;5051548;28;20094;-63
2024/01/01 11:04:22;;;;;;;5.68;3.10;;;;;;;-144.57;100.00;62443.72;5051643;28;20041;-62
2024/01/01 11:06:48;;;;;;;9.60;3.67;;;;;;;-144.57;100.00;62443.72;5053062;28;20186;-62